Time;durP1;ratioP1;P1;durP2;ratioP2;P2;SDS_P1;SDS_P2;PMS_P1;PMS_P2;Temp;Humidity;BMP_temperature;BMP_pressure;BME280_temperature;BME280_humidity;BME280_pressure;Samples;Min_cycle;Max_cycle;Signal;HPM_P1;HPM_P2
2024/01/01 00:00:15;;;;;;;12.77;7.03;;;9.90;96.80;;;;;;5082716;28;20012;-73
2024/01/01 00:02:41;;;;;;;14.10;6.50;;;9.80;96.40;;;;;;5082613;28;20040;-72
2024/01/01 00:05:08;;;;;;;11.23;6.57;;;9.90;93.70;;;;;;5082678;28;20032;-73
2024/01/01 00:07:33;;;;;;;9.48;6.57;;;9.80;96.60;;;;;;5082842;28;20043;-73
2024/01/01 00:09:59;;;;;;;9.55;6.25;;;;;;;;;;5082624;28;20024;-73
2024/01/01 00:12:26;;;;;;;11.70;6.53;;;10.20;96.60;;;;;;5082711;28;20028;-73
2024/01/01 00:14:51;;;;;;;10.35;6.00;;;9.80;96.30;;;;;;5082557;28;20027;-73
2024/01/01 00:17:18;;;;;;;13.32;6.20;;;;;;;;;;5082634;28;20115;-73
2024/01/01 00:19:43;;;;;;;9.88;6.22;;;9.90;96.10;;;;;;5082483;28;20147;-73
2024/01/01 00:22:09;;;;;;;9.25;6.13;;;;;;;;;;5082431;28;20320;-73
2024/01/01 00:24:35;;;;;;;8.23;5.47;;;;;;;;;;5082381;28;20080;-73
2024/01/01 00:27:01;;;;;;;9.88;6.38;;;;;;;;;;5081618;28;20535;-72
2024/01/01 00:29:27;;;;;;;8.38;5.85;;;10.30;95.90;;;;;;5082288;28;20029;-75
2024/01/01 00:31:53;;;;;;;8.65;6.13;;;;;;;;;;5082233;28;20021;-72
2024/01/01 00:34:19;;;;;;;9.98;5.63;;;9.90;95.80;;;;;;5082217;28;20070;-73
2024/01/01 00:36:45;;;;;;;9.40;6.45;;;;;;;;;;5082097;28;20017;-73
2024/01/01 00:39:11;;;;;;;9.70;6.03;;;10.00;95.70;;;;;;5082155;28;20079;-72
2024/01/01 00:41:36;;;;;;;11.50;6.55;;;10.20;93.50;;;;;;5081885;28;20044;-73
2024/01/01 00:44:03;;;;;;;12.10;6.97;;;10.10;92.50;;;;;;5081981;28;20271;-73
2024/01/01 00:46:29;;;;;;;11.15;7.05;;;10.00;94.20;;;;;;5082012;28;20035;-73
2024/01/01 00:48:54;;;;;;;9.50;6.63;;;10.00;95.20;;;;;;5081766;28;20044;-73
2024/01/01 00:51:20;;;;;;;10.35;6.90;;;;;;;;;;5063929;28;20024;-72
2024/01/01 00:53:46;;;;;;;11.68;6.72;;;10.10;95.10;;;;;;5081804;28;20028;-72
2024/01/01 00:56:12;;;;;;;13.20;6.78;;;;;;;;;;5081856;28;20316;-73
2024/01/01 00:58:38;;;;;;;9.48;6.10;;;10.10;95.20;;;;;;5081772;28;20096;-73
2024/01/01 01:01:04;;;;;;;11.13;7.03;;;;;;;;;;5063594;28;20041;-73
2024/01/01 01:03:31;;;;;;;13.55;6.93;;;9.80;95.20;;;;;;5081600;28;20016;-73
2024/01/01 01:05:57;;;;;;;9.35;7.03;;;10.00;95.30;;;;;;5081440;28;20348;-72
2024/01/01 01:08:25;;;;;;;12.02;6.95;;;10.00;95.40;;;;;;5081534;28;20027;-72
2024/01/01 01:10:51;;;;;;;16.20;8.27;;;;;;;;;;5084328;28;20020;-72
2024/01/01 01:13:17;;;;;;;13.40;8.20;;;9.80;95.50;;;;;;5101757;28;20024;-72
2024/01/01 01:15:43;;;;;;;11.32;7.30;;;;;;;;;;5091780;28;20028;-72
2024/01/01 01:18:09;;;;;;;13.38;8.05;;;;;;;;;;5081327;28;20320;-72
2024/01/01 01:20:35;;;;;;;11.43;7.60;;;9.90;96.10;;;;;;5081213;28;20039;-76
2024/01/01 01:23:01;;;;;;;15.02;7.47;;;9.80;96.20;;;;;;5081210;28;20080;-71
2024/01/01 01:25:27;;;;;;;14.02;8.65;;;;;;;;;;5076526;28;20312;-71
2024/01/01 01:27:52;;;;;;;13.55;8.23;;;10.10;96.50;;;;;;5066822;28;20025;-71
2024/01/01 01:30:18;;;;;;;14.75;9.15;;;9.60;95.00;;;;;;5061651;28;20248;-71
2024/01/01 01:32:45;;;;;;;10.27;6.32;;;9.80;94.90;;;;;;5080784;28;20036;-71
2024/01/01 01:35:11;;;;;;;12.88;7.80;;;9.90;96.20;;;;;;5080984;28;20024;-71
2024/01/01 01:37:37;;;;;;;10.52;7.50;;;;;;;;;;5080738;28;20017;-72
2024/01/01 01:40:03;;;;;;;13.60;8.25;;;;;;;;;;5079663;28;20367;-75
2024/01/01 01:42:29;;;;;;;11.88;7.60;;;9.70;93.50;;;;;;5080277;28;20059;-70
2024/01/01 01:44:55;;;;;;;12.77;8.32;;;9.60;96.50;;;;;;5080772;28;20340;-69
2024/01/01 01:47:24;;;;;;;11.95;7.95;;;9.50;96.60;;;;;;5080732;28;20020;-69
2024/01/01 01:49:51;;;;;;;11.80;8.32;;;9.70;96.70;;;;;;5080460;28;20364;-69
2024/01/01 01:52:16;;;;;;;15.52;8.00;;;9.80;96.80;;;;;;5080821;28;20108;-69
2024/01/01 01:54:45;;;;;;;13.65;7.97;;;9.90;97.00;;;;;;5080616;28;20013;-69
2024/01/01 01:57:14;;;;;;;12.98;8.23;;;9.60;94.30;;;;;;5080575;28;20017;-69
2024/01/01 01:59:43;;;;;;;13.93;9.27;;;9.40;97.30;;;;;;5080655;28;20060;-68
2024/01/01 02:02:10;;;;;;;15.15;9.75;;;9.90;97.60;;;;;;5080534;28;20077;-69
2024/01/01 02:04:36;;;;;;;16.50;9.35;;;9.40;97.10;;;;;;5080546;28;20020;-69
2024/01/01 02:07:01;;;;;;;16.10;9.07;;;9.50;97.90;;;;;;5081975;28;20204;-70
2024/01/01 02:09:27;;;;;;;14.43;9.60;;;9.60;97.90;;;;;;5082753;28;20363;-73
2024/01/01 02:11:53;;;;;;;17.00;9.57;;;9.40;96.60;;;;;;5069354;28;20213;-69
2024/01/01 02:14:19;;;;;;;15.27;9.80;;;;;;;;;;5060337;28;20297;-69
2024/01/01 02:16:44;;;;;;;14.75;9.02;;;9.50;98.20;;;;;;5061509;28;20178;-70
2024/01/01 02:19:30;;;;;;;15.90;10.25;;;9.40;95.40;;;;;;5061372;28;20036;-70
2024/01/01 02:21:57;;;;;;;16.23;9.55;;;;;;;;;;5061470;28;20036;-69
2024/01/01 02:24:23;;;;;;;18.90;10.02;;;9.60;98.30;;;;;;5061275;28;20009;-70
2024/01/01 02:26:49;;;;;;;16.10;9.77;;;;;;;;;;5060538;28;20029;-69
2024/01/01 02:29:15;;;;;;;14.70;9.25;;;9.50;95.20;;;;;;5061973;28;20029;-69
2024/01/01 02:31:41;;;;;;;16.17;9.98;;;9.40;97.30;;;;;;5060635;28;20049;-69
2024/01/01 02:34:07;;;;;;;15.70;8.65;;;9.70;98.10;;;;;;5060712;28;20343;-69
2024/01/01 02:36:38;;;;;;;17.15;8.90;;;9.90;98.10;;;;;;5060669;28;20021;-69
2024/01/01 02:39:05;;;;;;;15.75;9.77;;;9.40;98.10;;;;;;5060338;28;20036;-69
2024/01/01 02:41:35;;;;;;;16.60;10.40;;;9.30;95.20;;;;;;5060467;28;20047;-69
2024/01/01 02:44:01;;;;;;;14.85;9.75;;;;;;;;;;5060178;28;20068;-68
2024/01/01 02:46:27;;;;;;;17.58;10.20;;;9.40;98.30;;;;;;5060267;28;20059;-69
2024/01/01 02:48:53;;;;;;;15.82;10.10;;;;;;;;;;5064725;28;20044;-69
2024/01/01 02:51:19;;;;;;;17.27;10.55;;;9.30;98.20;;;;;;5080437;28;20040;-68
2024/01/01 02:53:44;;;;;;;14.98;10.18;;;9.50;98.40;;;;;;5084113;28;20240;-68
2024/01/01 02:56:21;;;;;;;18.52;10.85;;;9.30;95.30;;;;;;5083983;28;20029;-68
2024/01/01 02:58:47;;;;;;;15.95;10.32;;;9.30;95.30;;;;;;5083935;28;20316;-69
2024/01/01 03:01:13;;;;;;;18.92;10.75;;;9.40;98.40;;;;;;5083656;28;20029;-70
2024/01/01 03:03:39;;;;;;;17.02;11.57;;;9.10;98.60;;;;;;5083872;28;20076;-69
2024/01/01 03:06:07;;;;;;;18.10;12.18;;;;;;;;;;5083780;28;20028;-70
2024/01/01 03:08:36;;;;;;;21.98;11.52;;;9.20;98.30;;;;;;5062831;28;20052;-70
2024/01/01 03:11:02;;;;;;;25.00;12.18;;;;;;;;;;5065694;28;20025;-70
2024/01/01 03:13:28;;;;;;;21.38;11.90;;;8.90;99.10;;;;;;5083583;28;20012;-69
2024/01/01 03:15:54;;;;;;;19.77;12.30;;;9.30;99.30;;;;;;5083818;28;20031;-70
2024/01/01 03:18:21;;;;;;;18.40;12.30;;;8.90;99.40;;;;;;5083489;28;20074;-70
2024/01/01 03:20:46;;;;;;;19.55;12.48;;;8.80;99.60;;;;;;5083475;28;20032;-70
2024/01/01 03:23:12;;;;;;;21.08;12.63;;;;;;;;;;5083814;28;20024;-70
2024/01/01 03:25:38;;;;;;;19.88;13.38;;;8.60;99.90;;;;;;5083512;28;20491;-70
2024/01/01 03:28:04;;;;;;;18.05;11.25;;;8.50;99.90;;;;;;5083642;28;20020;-69
2024/01/01 03:30:29;;;;;;;17.85;10.32;;;8.60;99.90;;;;;;5083370;28;20099;-70
2024/01/01 03:32:55;;;;;;;18.00;10.80;;;8.30;98.80;;;;;;5065663;28;20032;-70
2024/01/01 03:35:21;;;;;;;20.27;10.55;;;;;;;;;;5083271;28;20020;-70
2024/01/01 03:37:47;;;;;;;14.50;9.80;;;;;;;;;;5083201;28;20051;-70
2024/01/01 03:40:13;;;;;;;20.30;11.18;;;8.00;96.90;;;;;;5083215;28;20320;-70
2024/01/01 03:42:38;;;;;;;17.13;10.13;;;7.90;99.90;;;;;;5083042;28;20039;-70
2024/01/01 03:45:05;;;;;;;20.00;10.70;;;7.70;99.90;;;;;;5083173;28;20012;-69
2024/01/01 03:47:33;;;;;;;18.77;10.55;;;7.40;99.90;;;;;;5082994;28;20528;-70
2024/01/01 03:49:58;;;;;;;18.67;11.57;;;7.40;98.20;;;;;;5082932;28;20052;-70
2024/01/01 03:52:24;;;;;;;20.35;11.40;;;7.30;99.90;;;;;;5083037;28;20062;-70
2024/01/01 03:54:50;;;;;;;20.17;10.45;;;;;;;;;;5082870;28;20088;-69
2024/01/01 03:57:16;;;;;;;21.92;12.60;;;;;;;;;;5082901;28;20039;-70
2024/01/01 03:59:42;;;;;;;26.98;13.75;;;7.20;99.90;;;;;;5082747;28;20448;-69
2024/01/01 04:02:10;;;;;;;26.77;13.60;;;7.40;98.20;;;;;;5081424;28;20036;-69
2024/01/01 04:04:36;;;;;;;24.55;13.38;;;6.90;99.90;;;;;;5082602;28;20027;-69
2024/01/01 04:07:02;;;;;;;28.33;14.93;;;7.00;97.20;;;;;;5082563;28;20221;-70
2024/01/01 04:09:28;;;;;;;27.40;14.73;;;;;;;;;;5082537;28;20021;-69
2024/01/01 04:11:54;;;;;;;29.00;16.05;;;;;;;;;;5082738;28;20086;-70
2024/01/01 04:14:20;;;;;;;28.02;15.73;;;;;;;;;;5082500;28;20370;-70
2024/01/01 04:16:46;;;;;;;28.27;14.95;;;6.90;98.90;;;;;;5082401;28;20075;-69
2024/01/01 04:19:12;;;;;;;28.73;15.93;;;;;;;;;;5082470;28;20029;-69
2024/01/01 04:21:39;;;;;;;28.55;15.88;;;6.80;96.50;;;;;;5082458;28;20111;-69
2024/01/01 04:24:09;;;;;;;29.75;15.65;;;6.70;96.40;;;;;;5082558;28;20016;-69
2024/01/01 04:26:37;;;;;;;30.77;15.20;;;6.80;96.60;;;;;;5082243;28;20024;-70
2024/01/01 04:29:03;;;;;;;31.23;16.23;;;6.60;99.90;;;;;;5064156;28;20091;-70
2024/01/01 04:31:29;;;;;;;29.67;16.33;;;;;;;;;;5082205;28;20034;-70
2024/01/01 04:33:54;;;;;;;27.92;15.98;;;6.60;97.60;;;;;;5082286;28;20016;-70
2024/01/01 04:36:21;;;;;;;36.95;18.13;;;6.40;97.50;;;;;;5081996;28;20205;-70
2024/01/01 04:38:47;;;;;;;31.60;16.13;;;6.50;99.90;;;;;;5082055;28;20028;-70
2024/01/01 04:41:13;;;;;;;30.63;16.70;;;;;;;;;;5082043;28;20114;-71
2024/01/01 04:43:40;;;;;;;27.38;14.75;;;6.40;98.00;;;;;;5082160;28;20032;-70
2024/01/01 04:46:06;;;;;;;31.90;16.42;;;6.70;99.90;;;;;;5081803;28;20309;-69
2024/01/01 04:48:32;;;;;;;29.00;17.35;;;6.30;99.90;;;;;;5081762;28;20029;-70
2024/01/01 04:50:59;;;;;;;33.60;17.55;;;;;;;;;;5081957;28;20091;-70
2024/01/01 04:53:25;;;;;;;34.50;17.35;;;6.30;97.20;;;;;;5081655;28;20020;-70
2024/01/01 04:55:51;;;;;;;29.88;14.98;;;;;;;;;;5081885;28;20059;-70
2024/01/01 04:58:16;;;;;;;34.28;16.48;;;6.00;99.20;;;;;;5081611;28;20030;-70
2024/01/01 05:00:42;;;;;;;34.67;15.10;;;6.20;99.90;;;;;;5081809;28;20020;-70
2024/01/01 05:03:08;;;;;;;32.58;16.98;;;;;;;;;;5081920;28;20040;-70
2024/01/01 05:05:34;;;;;;;32.58;18.38;;;;;;;;;;5081456;28;20214;-70
2024/01/01 05:08:00;;;;;;;33.55;17.70;;;;;;;;;;5084454;28;20393;-70
2024/01/01 05:10:26;;;;;;;39.70;18.25;;;6.00;99.90;;;;;;5081561;28;20039;-70
2024/01/01 05:12:52;;;;;;;35.80;18.95;;;6.00;99.90;;;;;;5081293;28;20368;-70
2024/01/01 05:15:18;;;;;;;39.45;19.65;;;;;;;;;;5066116;28;20096;-70
2024/01/01 05:17:44;;;;;;;49.03;22.05;;;5.80;99.30;;;;;;5063471;28;20343;-70
2024/01/01 05:20:11;;;;;;;41.53;22.05;;;;;;;;;;5081480;28;20024;-70
2024/01/01 05:22:37;;;;;;;40.22;20.88;;;;;;;;;;5081198;28;20039;-70
2024/01/01 05:25:04;;;;;;;45.47;21.90;;;5.70;99.90;;;;;;5081421;28;20019;-70
2024/01/01 05:27:30;;;;;;;45.67;23.52;;;;;;;;;;5081260;28;20028;-70
2024/01/01 05:29:56;;;;;;;42.80;21.67;;;;;;;;;;5081172;28;20190;-70
2024/01/01 05:32:21;;;;;;;41.70;21.15;;;5.90;99.90;;;;;;5063210;28;20026;-70
2024/01/01 05:34:47;;;;;;;46.92;21.40;;;6.00;99.90;;;;;;5080867;28;20084;-70
2024/01/01 05:37:13;;;;;;;40.47;21.65;;;6.00;99.90;;;;;;5080913;28;20021;-69
2024/01/01 05:39:38;;;;;;;39.13;19.25;;;5.90;99.90;;;;;;5081121;28;20119;-70
2024/01/01 05:42:04;;;;;;;42.33;20.95;;;5.90;99.90;;;;;;5080955;28;20186;-69
2024/01/01 05:44:30;;;;;;;47.47;23.27;;;;;;;;;;5080978;28;20419;-70
2024/01/01 05:46:56;;;;;;;42.78;21.60;;;;;;;;;;5080825;28;20067;-70
2024/01/01 05:49:23;;;;;;;41.05;22.45;;;5.90;99.90;;;;;;5080646;28;20067;-69
2024/01/01 05:51:51;;;;;;;46.42;22.75;;;5.80;99.90;;;;;;5080810;28;20021;-68
2024/01/01 05:54:16;;;;;;;41.33;20.77;;;5.80;99.90;;;;;;5080973;28;20024;-68
2024/01/01 05:56:44;;;;;;;39.60;20.52;;;5.70;99.90;;;;;;5080617;28;20033;-69
2024/01/01 05:59:10;;;;;;;44.58;22.30;;;;;;;;;;5080617;28;20016;-68
2024/01/01 06:01:35;;;;;;;43.75;21.10;;;6.30;99.90;;;;;;5080662;28;20074;-69
2024/01/01 06:04:02;;;;;;;42.25;20.92;;;;;;;;;;5080613;28;20243;-69
2024/01/01 06:06:27;;;;;;;41.10;20.52;;;5.70;99.90;;;;;;5080589;28;20016;-69
2024/01/01 06:08:53;;;;;;;37.85;20.50;;;5.70;99.90;;;;;;5080856;28;20084;-68
2024/01/01 06:11:19;;;;;;;36.25;20.38;;;5.70;99.90;;;;;;5080868;28;20260;-68
2024/01/01 06:13:45;;;;;;;37.33;20.77;;;5.50;99.90;;;;;;5080821;28;20024;-68
2024/01/01 06:16:13;;;;;;;43.45;21.23;;;;;;;;;;5080537;28;20032;-69
2024/01/01 06:18:39;;;;;;;44.83;20.63;;;5.70;99.90;;;;;;5080583;28;20008;-69
2024/01/01 06:21:05;;;;;;;39.55;20.35;;;5.50;99.90;;;;;;5080520;28;20405;-69
2024/01/01 06:23:31;;;;;;;42.88;19.98;;;;;;;;;;5062254;28;20028;-69
2024/01/01 06:25:57;;;;;;;39.13;19.95;;;5.50;99.90;;;;;;5085677;28;20033;-68
2024/01/01 06:28:23;;;;;;;40.58;19.98;;;;;;;;;;5086518;28;20102;-69
2024/01/01 06:30:48;;;;;;;41.92;20.17;;;5.50;99.90;;;;;;5086519;28;20029;-70
2024/01/01 06:33:14;;;;;;;41.65;20.38;;;5.50;99.90;;;;;;5068563;28;20021;-69
2024/01/01 06:35:40;;;;;;;37.75;19.48;;;5.60;99.90;;;;;;5087747;28;20028;-71
2024/01/01 06:38:06;;;;;;;44.88;20.52;;;5.70;99.90;;;;;;5070878;28;20028;-71
2024/01/01 06:40:32;;;;;;;43.08;19.83;;;;;;;;;;5088056;28;20110;-70
2024/01/01 06:42:58;;;;;;;45.78;21.67;;;;;;;;;;5086943;28;20091;-70
2024/01/01 06:45:24;;;;;;;41.17;20.77;;;5.60;99.90;;;;;;5087063;28;20025;-70
2024/01/01 06:47:50;;;;;;;48.22;20.33;;;5.80;99.90;;;;;;5086878;28;20150;-71
2024/01/01 06:50:16;;;;;;;41.58;19.92;;;;;;;;;;5086774;28;20075;-70
2024/01/01 06:52:42;;;;;;;37.53;18.92;;;;;;;;;;5069003;28;20205;-70
2024/01/01 06:55:08;;;;;;;38.58;19.60;;;;;;;;;;5087092;28;20104;-71
2024/01/01 06:57:33;;;;;;;40.70;17.65;;;6.00;99.90;;;;;;5086814;28;20127;-70
2024/01/01 06:59:59;;;;;;;39.53;17.88;;;5.70;99.90;;;;;;5086835;28;20094;-70
2024/01/01 07:02:28;;;;;;;40.22;19.20;;;5.60;99.90;;;;;;5068733;28;20044;-70
2024/01/01 07:04:53;;;;;;;38.10;18.45;;;5.50;99.90;;;;;;5086692;28;20020;-70
2024/01/01 07:07:19;;;;;;;39.67;18.88;;;5.60;99.90;;;;;;5086667;28;20320;-70
2024/01/01 07:09:45;;;;;;;39.15;17.92;;;;;;;;;;5086513;28;20029;-70
2024/01/01 07:12:18;;;;;;;28.23;14.98;;;5.40;99.90;;;;;;5086678;28;20450;-71
2024/01/01 07:14:45;;;;;;;27.55;12.65;;;5.30;99.90;;;;;;5086530;28;20013;-71
2024/01/01 07:17:10;;;;;;;24.15;12.52;;;5.30;99.90;;;;;;5088233;28;20052;-71
2024/01/01 07:19:36;;;;;;;24.75;13.20;;;;;;;;;;5086581;28;20067;-72
2024/01/01 07:22:02;;;;;;;25.15;13.15;;;5.50;99.90;;;;;;5086477;28;20360;-70
2024/01/01 07:24:29;;;;;;;20.30;10.95;;;5.80;99.90;;;;;;5086511;28;20028;-69
2024/01/01 07:26:54;;;;;;;21.90;10.82;;;5.40;99.90;;;;;;5086490;28;20012;-70
2024/01/01 07:29:20;;;;;;;16.40;8.45;;;5.30;99.90;;;;;;5086494;28;20051;-69
2024/01/01 07:31:46;;;;;;;18.92;10.18;;;5.50;99.90;;;;;;5086727;28;20028;-71
2024/01/01 07:34:12;;;;;;;19.95;8.50;;;;;;;;;;5086500;28;20236;-69
2024/01/01 07:36:38;;;;;;;19.90;10.10;;;;;;;;;;5084822;28;20032;-69
2024/01/01 07:39:04;;;;;;;15.68;7.07;;;;;;;;;;5083424;28;20386;-69
2024/01/01 07:41:30;;;;;;;12.77;6.22;;;5.40;99.90;;;;;;5083209;28;20138;-71
2024/01/01 07:43:56;;;;;;;16.17;7.97;;;5.20;99.90;;;;;;5083147;28;20088;-71
2024/01/01 07:46:21;;;;;;;10.45;4.40;;;5.40;99.90;;;;;;5083157;28;20021;-70
2024/01/01 07:48:47;;;;;;;9.13;4.90;;;;;;;;;;5083044;28;20151;-71
2024/01/01 07:51:14;;;;;;;11.10;5.18;;;;;;;;;;5083367;28;20039;-70
2024/01/01 07:53:41;;;;;;;7.10;4.07;;;;;;;;;;5083070;28;20024;-70
2024/01/01 07:56:07;;;;;;;7.68;4.15;;;;;;;;;;5083019;28;20021;-70
2024/01/01 07:58:33;;;;;;;7.80;4.22;;;;;;;;;;5082972;28;20042;-69
2024/01/01 08:00:59;;;;;;;4.88;3.13;;;5.30;99.90;;;;;;5083009;28;20527;-70
2024/01/01 08:03:25;;;;;;;5.65;2.90;;;5.30;99.90;;;;;;5083127;28;20025;-70
2024/01/01 08:05:51;;;;;;;5.10;2.58;;;5.20;99.90;;;;;;5083161;28;20020;-70
2024/01/01 08:08:17;;;;;;;3.25;2.25;;;5.20;99.90;;;;;;5083136;28;20559;-70
2024/01/01 08:10:43;;;;;;;3.10;1.60;;;5.20;99.90;;;;;;5083069;28;20028;-68
2024/01/01 08:13:09;;;;;;;2.80;1.52;;;5.30;99.90;;;;;;5082674;28;20035;-71
2024/01/01 08:15:35;;;;;;;2.80;1.33;;;;;;;;;;5082933;28;20020;-70
2024/01/01 08:18:02;;;;;;;3.35;2.15;;;5.00;99.90;;;;;;5083190;28;20091;-69
2024/01/01 08:20:29;;;;;;;2.03;1.25;;;;;;;;;;5082677;28;20339;-69
2024/01/01 08:22:55;;;;;;;3.58;1.70;;;;;;;;;;5082424;28;20336;-69
2024/01/01 08:25:21;;;;;;;2.90;1.60;;;5.20;99.90;;;;;;5084482;28;20051;-70
2024/01/01 08:27:47;;;;;;;3.40;1.55;;;;;;;;;;5094108;28;20161;-69
2024/01/01 08:30:13;;;;;;;3.13;1.90;;;5.40;99.90;;;;;;5102554;28;20216;-69
2024/01/01 08:32:39;;;;;;;2.28;1.52;;;;;;;;;;5084060;28;20048;-69
2024/01/01 08:35:06;;;;;;;2.08;1.40;;;;;;;;;;5063876;28;20025;-69
2024/01/01 08:37:32;;;;;;;3.15;1.73;;;5.50;99.90;;;;;;5082074;28;20016;-70
2024/01/01 08:39:59;;;;;;;3.42;1.75;;;;;;;;;;5082066;28;20082;-69
2024/01/01 08:42:25;;;;;;;3.22;1.60;;;5.60;99.90;;;;;;5081907;28;20115;-69
2024/01/01 08:44:52;;;;;;;6.05;2.03;;;5.70;99.90;;;;;;5100804;28;20015;-69
2024/01/01 08:47:17;;;;;;;3.03;1.52;;;5.80;99.90;;;;;;5101804;28;20091;-70
2024/01/01 08:49:43;;;;;;;6.70;3.45;;;5.90;99.90;;;;;;5095598;28;20055;-69
2024/01/01 08:52:09;;;;;;;2.50;1.40;;;;;;;;;;5081877;28;20024;-71
2024/01/01 08:54:35;;;;;;;4.38;2.00;;;6.00;99.90;;;;;;5081823;28;20031;-71
2024/01/01 08:57:00;;;;;;;4.63;2.45;;;5.80;99.90;;;;;;5081831;28;20020;-69
2024/01/01 08:59:26;;;;;;;3.20;1.85;;;5.90;99.90;;;;;;5081977;28;20032;-69
2024/01/01 09:01:52;;;;;;;4.22;2.00;;;6.00;99.90;;;;;;5081485;28;20343;-70
2024/01/01 09:04:17;;;;;;;6.70;2.90;;;6.20;99.90;;;;;;5080432;28;20198;-71
2024/01/01 09:06:43;;;;;;;1.85;1.35;;;6.20;99.90;;;;;;5081524;28;20033;-71
2024/01/01 09:09:10;;;;;;;4.22;2.25;;;6.20;99.90;;;;;;5081757;28;20089;-73
2024/01/01 09:11:36;;;;;;;3.33;2.08;;;6.30;99.90;;;;;;5081558;28;20036;-72
2024/01/01 09:14:02;;;;;;;5.95;2.60;;;6.20;99.90;;;;;;5081644;28;20323;-71
2024/01/01 09:16:29;;;;;;;5.32;2.35;;;6.20;99.90;;;;;;5070076;28;20029;-70
2024/01/01 09:19:01;;;;;;;4.53;2.08;;;6.00;99.90;;;;;;5061227;28;20291;-72
2024/01/01 09:21:27;;;;;;;6.00;2.28;;;6.30;99.90;;;;;;5080134;28;20399;-70
2024/01/01 09:24:00;;;;;;;4.90;2.25;;;6.30;99.90;;;;;;5081153;28;20275;-70
2024/01/01 09:26:26;;;;;;;5.30;2.17;;;6.70;99.90;;;;;;5081346;28;20032;-70
2024/01/01 09:28:52;;;;;;;5.57;2.85;;;6.30;99.90;;;;;;5081186;28;20251;-72
2024/01/01 09:31:18;;;;;;;8.27;3.25;;;6.20;99.90;;;;;;5080901;28;20317;-72
2024/01/01 09:33:43;;;;;;;5.28;2.55;;;6.50;99.90;;;;;;5074151;28;20025;-72
2024/01/01 09:36:12;;;;;;;3.45;2.40;;;6.30;99.90;;;;;;5061070;28;20025;-71
2024/01/01 09:38:37;;;;;;;6.93;2.95;;;6.90;99.90;;;;;;5069607;28;20371;-70
2024/01/01 09:41:03;;;;;;;5.15;2.97;;;;;;;;;;5079115;28;20036;-70
2024/01/01 09:43:29;;;;;;;5.13;2.53;;;6.50;99.90;;;;;;5061129;28;20020;-73
2024/01/01 09:45:55;;;;;;;6.53;2.92;;;6.60;99.90;;;;;;5060765;28;20213;-73
2024/01/01 09:48:21;;;;;;;6.10;2.63;;;7.10;99.90;;;;;;5066431;28;20032;-71
2024/01/01 09:50:49;;;;;;;3.53;1.42;;;6.50;99.90;;;;;;5080897;28;20033;-71
2024/01/01 09:53:17;;;;;;;4.32;2.28;;;6.70;99.90;;;;;;5062783;28;20024;-71
2024/01/01 09:55:53;;;;;;;3.42;1.90;;;6.80;99.90;;;;;;5081371;28;20024;-71
2024/01/01 09:58:19;;;;;;;5.90;2.60;;;6.80;99.90;;;;;;5080604;28;20020;-73
2024/01/01 10:00:45;;;;;;;6.68;2.55;;;4.70;99.90;;;;;;5080054;28;20087;-74
2024/01/01 10:03:11;;;;;;;4.38;1.95;;;6.90;99.90;;;;;;5080773;28;20225;-73
2024/01/01 10:05:41;;;;;;;2.75;1.75;;;7.20;99.90;;;;;;5080747;28;20321;-71
2024/01/01 10:08:09;;;;;;;4.93;2.17;;;7.00;99.90;;;;;;5080520;28;20034;-72
2024/01/01 10:10:39;;;;;;;5.45;2.63;;;7.20;99.90;;;;;;5080691;28;20029;-73
2024/01/01 10:13:10;;;;;;;3.60;2.10;;;7.40;99.90;;;;;;5080738;28;20021;-73
2024/01/01 10:15:39;;;;;;;3.78;2.30;;;7.30;99.90;;;;;;5062717;28;20312;-73
2024/01/01 10:18:14;;;;;;;3.10;1.95;;;7.50;99.90;;;;;;5062645;28;20020;-73
2024/01/01 10:20:42;;;;;;;4.50;1.90;;;7.40;99.90;;;;;;5082964;28;20031;-73
2024/01/01 10:23:20;;;;;;;5.03;2.17;;;7.50;99.90;;;;;;5080887;28;20043;-73
2024/01/01 10:26:00;;;;;;;4.22;1.92;;;7.70;99.90;;;;;;5080777;28;20103;-73
2024/01/01 10:28:29;;;;;;;2.13;1.25;;;7.50;99.90;;;;;;5080691;28;20340;-74
2024/01/01 10:30:55;;;;;;;4.18;1.98;;;7.40;99.90;;;;;;5062610;28;20048;-74
2024/01/01 10:33:23;;;;;;;2.97;1.90;;;7.70;99.90;;;;;;5080841;28;20059;-73
2024/01/01 10:35:50;;;;;;;3.67;2.13;;;7.80;99.90;;;;;;5082222;28;20029;-73
2024/01/01 10:38:17;;;;;;;3.90;2.22;;;8.10;99.90;;;;;;5062341;28;20339;-72
2024/01/01 10:40:46;;;;;;;4.53;2.38;;;8.00;99.90;;;;;;5062244;28;20031;-72
2024/01/01 10:43:12;;;;;;;6.22;2.35;;;;;;;;;;5080344;28;20056;-73
2024/01/01 10:45:42;;;;;;;3.40;2.22;;;8.40;99.90;;;;;;5080217;28;20017;-72
2024/01/01 10:48:10;;;;;;;6.05;2.80;;;8.10;99.90;;;;;;5085703;28;20034;-72
2024/01/01 10:50:42;;;;;;;4.05;2.28;;;8.20;99.90;;;;;;5082594;28;20112;-72
2024/01/01 10:54:05;;;;;;;4.50;2.55;;;8.30;99.90;;;;;;5079307;28;20051;-73
2024/01/01 10:56:53;;;;;;;5.63;2.90;;;8.40;97.80;;;;;;4998593;28;20029;-72
2024/01/01 10:59:21;;;;;;;5.57;2.17;;;8.70;99.90;;;;;;4998683;28;20026;-72
2024/01/01 11:01:52;;;;;;;4.68;2.83;;;8.60;99.00;;;;;;5050031;28;20051;-71
2024/01/01 11:04:21;;;;;;;4.82;2.80;;;8.70;96.20;;;;;;5080039;28;20020;-73
2024/01/01 11:06:47;;;;;;;4.75;2.72;;;8.80;97.00;;;;;;5080071;28;20160;-73
2024/01/01 11:09:19;;;;;;;3.63;1.75;;;8.60;95.20;;;;;;5075325;28;20066;-73
2024/01/01 11:11:52;;;;;;;5.88;3.53;;;8.60;95.20;;;;;;5082358;28;20025;-72
2024/01/01 11:14:31;;;;;;;4.38;2.38;;;8.40;95.20;;;;;;5072661;28;20025;-73
2024/01/01 11:17:00;;;;;;;2.95;2.03;;;8.50;97.70;;;;;;5063872;28;20025;-72
2024/01/01 11:19:49;;;;;;;3.95;2.72;;;8.30;97.70;;;;;;5063697;28;20317;-72
2024/01/01 11:22:20;;;;;;;4.78;2.65;;;8.50;94.40;;;;;;5063560;28;20396;-72
2024/01/01 11:24:50;;;;;;;5.30;3.22;;;8.50;97.30;;;;;;5063294;28;20048;-72
2024/01/01 11:27:25;;;;;;;3.75;2.17;;;8.40;97.30;;;;;;5081751;28;20020;-72
2024/01/01 11:29:50;;;;;;;6.18;2.90;;;8.40;95.90;;;;;;5085136;28;20110;-73
2024/01/01 11:32:20;;;;;;;5.13;2.08;;;8.40;97.00;;;;;;5084126;28;20021;-75
2024/01/01 11:35:08;;;;;;;5.43;3.53;;;8.60;96.90;;;;;;5083374;28;20335;-72
2024/01/01 11:37:35;;;;;;;4.20;2.70;;;8.60;96.60;;;;;;5083684;28;20032;-73
2024/01/01 11:40:03;;;;;;;8.48;3.72;;;8.70;96.30;;;;;;5083457;28;20012;-69
2024/01/01 11:42:29;;;;;;;7.20;3.72;;;8.50;93.70;;;;;;5083562;28;20039;-73
2024/01/01 11:45:16;;;;;;;3.08;1.77;;;8.30;95.40;;;;;;5065407;28;20029;-72
2024/01/01 11:47:42;;;;;;;7.30;3.03;;;8.40;95.30;;;;;;5083044;28;20054;-72
2024/01/01 11:50:09;;;;;;;4.28;2.80;;;8.70;95.40;;;;;;5082721;28;20052;-73
2024/01/01 11:52:35;;;;;;;5.32;3.53;;;8.60;94.90;;;;;;5082993;28;20344;-73
2024/01/01 11:55:01;;;;;;;6.18;3.10;;;8.40;94.80;;;;;;5082974;28;20044;-73
2024/01/01 11:57:28;;;;;;;3.85;2.60;;;;;;;;;;5082883;28;20026;-73
2024/01/01 11:59:54;;;;;;;6.88;2.97;;;9.20;94.60;;;;;;5083169;28;20032;-73
2024/01/01 12:02:21;;;;;;;6.47;4.25;;;8.60;94.30;;;;;;5082683;28;20447;-73
2024/01/01 12:04:54;;;;;;;7.85;3.72;;;9.10;94.60;;;;;;5082768;28;20036;-73
2024/01/01 12:07:30;;;;;;;7.53;3.60;;;8.70;93.20;;;;;;5082787;28;20285;-72
2024/01/01 12:10:08;;;;;;;6.88;3.20;;;9.10;93.70;;;;;;5082770;28;20047;-72
2024/01/01 12:12:35;;;;;;;8.18;3.85;;;8.90;93.20;;;;;;5082745;28;20029;-72
2024/01/01 12:15:10;;;;;;;7.35;4.07;;;8.70;93.00;;;;;;5082546;28;20024;-72
2024/01/01 12:17:43;;;;;;;7.30;3.67;;;9.20;93.00;;;;;;5082634;28;20356;-72
2024/01/01 12:20:14;;;;;;;8.02;3.45;;;9.10;90.10;;;;;;5082502;28;20020;-72
2024/01/01 12:22:39;;;;;;;6.70;3.95;;;9.20;90.20;;;;;;5081315;28;20040;-73
2024/01/01 12:25:06;;;;;;;6.60;3.88;;;;;;;;;;5082462;28;20015;-73
2024/01/01 12:27:32;;;;;;;8.95;4.95;;;9.50;91.90;;;;;;5082355;28;20082;-72
2024/01/01 12:29:59;;;;;;;4.78;2.88;;;9.40;91.10;;;;;;5082388;28;20012;-72
2024/01/01 12:32:25;;;;;;;7.53;4.13;;;;;;;;;;5082305;28;20028;-70
2024/01/01 12:34:51;;;;;;;7.50;3.72;;;9.60;85.50;;;;;;5082352;28;20047;-77
2024/01/01 12:37:17;;;;;;;5.15;3.50;;;9.90;90.80;;;;;;5083127;28;20016;-76
2024/01/01 12:39:44;;;;;;;6.30;3.45;;;;;;;;;;5082663;28;20111;-76
2024/01/01 12:42:09;;;;;;;7.60;4.63;;;10.30;85.40;;;;;;5082128;28;20327;-77
2024/01/01 12:44:36;;;;;;;9.75;4.03;;;10.60;83.10;;;;;;5083811;28;20028;-78
2024/01/01 12:47:02;;;;;;;5.13;3.50;;;;;;;;;;5084327;28;20024;-76
2024/01/01 12:49:30;;;;;;;5.90;2.78;;;;;;;;;;5092621;28;20043;-75
2024/01/01 12:51:57;;;;;;;6.28;2.85;;;;;;;;;;5103060;28;20024;-75
2024/01/01 12:54:23;;;;;;;4.28;3.08;;;12.60;70.80;;;;;;5086483;28;20091;-77
2024/01/01 12:56:48;;;;;;;4.65;2.75;;;13.10;68.30;;;;;;5104642;28;20020;-77
2024/01/01 12:59:15;;;;;;;7.35;2.88;;;;;;;;;;5094882;28;20096;-78
2024/01/01 13:01:40;;;;;;;4.80;3.28;;;14.00;60.70;;;;;;5055631;28;20041;-78
2024/01/01 13:04:06;;;;;;;5.25;3.47;;;;;;;;;;5064038;28;20013;-77
2024/01/01 13:06:32;;;;;;;8.35;4.55;;;;;;;;;;5046948;28;20027;-77
2024/01/01 13:08:58;;;;;;;5.10;3.70;;;;;;;;;;5046346;28;20017;-79
2024/01/01 13:11:24;;;;;;;5.78;2.97;;;;;;;;;;5045394;28;20253;-79